createdAt,value
2023-05-09T00:01:48.611Z,100199.16
2023-05-09T00:04:15.934Z,100192.78
2023-05-09T00:06:43.486Z,100195.41
2023-05-09T00:09:10.778Z,100204.25
2023-05-09T00:11:39.659Z,100209.38
2023-05-09T00:14:07.280Z,100216.44
2023-05-09T00:16:34.871Z,100225.00
2023-05-09T00:19:02.245Z,100239.28
2023-05-09T00:21:29.891Z,100234.09
2023-05-09T00:23:57.387Z,100228.03
2023-05-09T00:26:24.884Z,100219.84
2023-05-09T00:28:53.588Z,100223.06
2023-05-09T00:31:21.093Z,100211.72
2023-05-09T00:33:48.653Z,100203.06
2023-05-09T00:36:16.187Z,100208.19
2023-05-09T00:38:43.662Z,100212.00
2023-05-09T00:41:10.979Z,100201.78
2023-05-09T00:43:38.376Z,100206.78
2023-05-09T00:46:07.256Z,100190.72
2023-05-09T00:48:35.748Z,100184.66
2023-05-09T00:51:03.190Z,100179.84
2023-05-09T00:53:30.943Z,100178.75
2023-05-09T00:56:00.187Z,100171.97
2023-05-09T00:58:28.132Z,100158.56
2023-05-09T01:00:55.409Z,100160.34
2023-05-09T01:03:24.184Z,100154.03
2023-05-09T01:05:58.445Z,100156.00
2023-05-09T01:08:37.631Z,100152.75
2023-05-09T01:11:10.828Z,100152.44
2023-05-09T01:13:49.636Z,100154.19
2023-05-09T01:16:23.270Z,100158.88
2023-05-09T01:19:00.751Z,100158.22
2023-05-09T01:21:31.163Z,100168.88
2023-05-09T01:24:24.898Z,100171.53
2023-05-09T01:27:15.781Z,100175.06
2023-05-09T01:29:47.182Z,100166.19
2023-05-09T01:32:18.157Z,100168.28
2023-05-09T01:34:47.762Z,100168.31
2023-05-09T01:37:16.127Z,100179.09
2023-05-09T01:39:48.221Z,100187.53
2023-05-09T01:42:18.796Z,100185.50
2023-05-09T01:44:48.978Z,100190.91
2023-05-09T01:47:19.759Z,100196.88
2023-05-09T01:49:47.996Z,100192.38
2023-05-09T01:52:18.590Z,100180.47
2023-05-09T01:54:47.730Z,100190.06
2023-05-09T01:57:15.340Z,100188.97
2023-05-09T01:59:44.881Z,100193.91
2023-05-09T02:02:14.775Z,100197.25
2023-05-09T02:04:44.079Z,100199.75
2023-05-09T02:07:12.723Z,100195.75
2023-05-09T02:09:40.387Z,100189.81
2023-05-09T02:12:07.921Z,100191.78
2023-05-09T02:14:35.282Z,100183.59
2023-05-09T02:17:02.715Z,100188.56
2023-05-09T02:19:32.243Z,100183.53
2023-05-09T02:21:59.599Z,100177.13
2023-05-09T02:24:27.241Z,100180.13
2023-05-09T02:26:55.390Z,100179.72
2023-05-09T02:29:27.544Z,100178.34
2023-05-09T02:31:55.949Z,100181.13
2023-05-09T02:34:24.047Z,100194.19
2023-05-09T02:36:52.799Z,100184.25
2023-05-09T02:39:20.578Z,100174.44
2023-05-09T02:41:48.724Z,100170.47
2023-05-09T02:44:15.996Z,100161.63
2023-05-09T02:46:43.484Z,100166.69
2023-05-09T02:49:16.754Z,100164.53
2023-05-09T02:51:51.854Z,100161.44
2023-05-09T02:54:19.341Z,100155.59
2023-05-09T02:56:46.639Z,100154.66
2023-05-09T02:59:14.058Z,100158.72
2023-05-09T03:01:41.505Z,100155.22
2023-05-09T03:04:08.972Z,100145.53
2023-05-09T03:06:36.393Z,100146.38
2023-05-09T03:09:05.124Z,100148.59
2023-05-09T03:11:32.494Z,100150.50
2023-05-09T03:13:59.801Z,100146.34
2023-05-09T03:16:27.244Z,100142.09
2023-05-09T03:18:54.726Z,100146.47
2023-05-09T03:21:22.080Z,100130.44
2023-05-09T03:23:49.597Z,100124.25
2023-05-09T03:26:18.497Z,100122.84
2023-05-09T03:28:46.518Z,100120.19
2023-05-09T03:31:14.140Z,100131.81
2023-05-09T03:33:41.490Z,100135.81
2023-05-09T03:36:09.382Z,100133.78
2023-05-09T03:38:36.905Z,100126.44
2023-05-09T03:41:04.342Z,100115.66
2023-05-09T03:43:33.025Z,100105.78
2023-05-09T03:46:00.320Z,100120.75
2023-05-09T03:48:27.873Z,100110.72
2023-05-09T03:50:55.331Z,100111.03
2023-05-09T03:53:23.667Z,100111.91
2023-05-09T03:55:51.258Z,100105.69
2023-05-09T03:58:18.645Z,100104.13
2023-05-09T04:00:47.788Z,100085.44
2023-05-09T04:03:15.278Z,100072.88
2023-05-09T04:05:42.725Z,100051.50
2023-05-09T04:08:10.226Z,100039.78
2023-05-09T04:10:37.493Z,100052.16
2023-05-09T04:13:07.868Z,100061.56
2023-05-09T04:15:35.227Z,100078.06
2023-05-09T04:18:04.370Z,100097.03
2023-05-09T04:20:31.716Z,100096.88
2023-05-09T04:22:59.059Z,100101.44
2023-05-09T04:25:26.392Z,100089.34
2023-05-09T04:27:53.687Z,100087.69
2023-05-09T04:30:21.100Z,100085.09
2023-05-09T04:32:48.478Z,100088.13
2023-05-09T04:35:19.848Z,100073.00
2023-05-09T04:37:48.056Z,100076.91
2023-05-09T04:40:15.771Z,100075.88
2023-05-09T04:42:43.141Z,100087.78
2023-05-09T04:45:11.551Z,100087.88
2023-05-09T04:47:39.127Z,100085.84
2023-05-09T04:50:26.502Z,100083.59
2023-05-09T04:52:53.934Z,100067.34
2023-05-09T04:55:21.430Z,100063.41
2023-05-09T04:57:48.848Z,100058.41
2023-05-09T05:00:16.551Z,100047.25
2023-05-09T05:02:43.954Z,100043.81
2023-05-09T05:05:12.433Z,100048.66
2023-05-09T05:07:41.570Z,100057.66
2023-05-09T05:10:09.984Z,100064.25
2023-05-09T05:12:37.468Z,100073.34
2023-05-09T05:15:05.879Z,100070.66
2023-05-09T05:17:33.294Z,100078.19
2023-05-09T05:20:00.639Z,100077.00
2023-05-09T05:22:27.957Z,100068.72
2023-05-09T05:24:56.719Z,100067.16
2023-05-09T05:27:24.288Z,100062.50
2023-05-09T05:29:51.692Z,100069.00
2023-05-09T05:32:19.132Z,100065.09
2023-05-09T05:34:46.613Z,100062.69
2023-05-09T05:37:14.050Z,100054.03
2023-05-09T05:39:41.572Z,100049.59
2023-05-09T05:42:10.412Z,100061.09
2023-05-09T05:44:38.206Z,100066.69
2023-05-09T05:47:05.711Z,100077.28
2023-05-09T05:49:33.040Z,100080.25
2023-05-09T05:52:03.543Z,100071.69
2023-05-09T05:54:30.963Z,100070.84
2023-05-09T05:56:58.284Z,100079.31
2023-05-09T05:59:27.047Z,100070.94
2023-05-09T06:01:54.424Z,100067.50
2023-05-09T06:04:21.972Z,100065.09
2023-05-09T06:06:49.468Z,100067.34
2023-05-09T06:09:16.766Z,100063.97
2023-05-09T06:11:44.063Z,100068.25
2023-05-09T06:14:11.541Z,100058.97
2023-05-09T06:16:40.365Z,100059.19
2023-05-09T06:19:07.698Z,100062.31
2023-05-09T06:21:34.998Z,100064.63
2023-05-09T06:24:09.925Z,100054.00
2023-05-09T06:26:41.739Z,100060.31
2023-05-09T06:29:09.013Z,100057.41
2023-05-09T06:31:36.574Z,100058.69
2023-05-09T06:34:05.320Z,100050.41
2023-05-09T06:36:32.651Z,100046.78
2023-05-09T06:39:01.055Z,100048.25
2023-05-09T06:41:28.616Z,100052.41
2023-05-09T06:43:55.939Z,100050.34
2023-05-09T06:46:23.309Z,100052.03
2023-05-09T06:48:50.711Z,100048.72
2023-05-09T06:51:19.875Z,100049.84
2023-05-09T06:53:47.379Z,100044.56
2023-05-09T06:56:14.713Z,100047.53
2023-05-09T06:58:42.092Z,100044.31
2023-05-09T07:01:09.480Z,100055.88
2023-05-09T07:03:36.946Z,100046.38
2023-05-09T07:06:04.459Z,100047.38
2023-05-09T07:08:33.699Z,100043.09
2023-05-09T07:11:01.141Z,100041.75
2023-05-09T07:13:28.468Z,100038.59
2023-05-09T07:15:56.064Z,100027.88
2023-05-09T07:18:23.395Z,100030.66
2023-05-09T07:20:50.705Z,100029.41
2023-05-09T07:23:18.079Z,100023.25
2023-05-09T07:25:46.775Z,100025.94
2023-05-09T07:28:14.083Z,100021.50
2023-05-09T07:30:41.474Z,100024.84
2023-05-09T07:33:08.836Z,100026.63
2023-05-09T07:35:36.407Z,100029.25
2023-05-09T07:38:03.749Z,100029.56
2023-05-09T07:40:31.233Z,100028.53
2023-05-09T07:42:59.926Z,100030.41
2023-05-09T07:45:27.416Z,100022.59
2023-05-09T07:47:54.896Z,100023.13
2023-05-09T07:50:22.345Z,100036.34
2023-05-09T07:52:49.931Z,100027.81
2023-05-09T07:55:17.667Z,100027.28
2023-05-09T07:57:45.278Z,100032.47
2023-05-09T08:00:15.165Z,100030.94
2023-05-09T08:02:42.595Z,100027.03
2023-05-09T08:05:10.386Z,100033.91
2023-05-09T08:07:37.752Z,100030.19
2023-05-09T08:10:06.144Z,100031.06
2023-05-09T08:12:33.445Z,100037.75
2023-05-09T08:15:00.776Z,100040.47
2023-05-09T08:17:29.521Z,100045.06
2023-05-09T08:19:56.974Z,100044.22
2023-05-09T08:22:24.293Z,100047.38
2023-05-09T08:24:51.673Z,100055.06
2023-05-09T08:27:19.019Z,100067.75
2023-05-09T08:29:46.524Z,100070.22
2023-05-09T08:32:13.842Z,100066.31
2023-05-09T08:34:42.598Z,100072.78
2023-05-09T08:37:09.989Z,100075.94
2023-05-09T08:39:37.609Z,100071.03
2023-05-09T08:42:05.039Z,100073.66
2023-05-09T08:44:32.379Z,100066.78
2023-05-09T08:47:01.663Z,100062.19
2023-05-09T08:49:29.721Z,100064.91
2023-05-09T08:51:59.627Z,100057.13
2023-05-09T08:54:27.687Z,100060.06
2023-05-09T08:56:55.125Z,100062.66
2023-05-09T08:59:22.898Z,100060.84
2023-05-09T09:01:50.862Z,100068.94
2023-05-09T09:04:18.279Z,100078.03
2023-05-09T09:06:46.813Z,100075.56
2023-05-09T09:09:17.269Z,100083.47
2023-05-09T09:11:45.294Z,100096.78
2023-05-09T09:14:19.409Z,100098.97
2023-05-09T09:16:48.921Z,100095.38
2023-05-09T09:19:17.992Z,100095.41
2023-05-09T09:21:46.408Z,100101.34
2023-05-09T09:24:21.505Z,100109.84
2023-05-09T09:26:50.723Z,100108.56
2023-05-09T09:29:19.753Z,100116.22
2023-05-09T09:31:48.161Z,100122.06
2023-05-09T09:34:23.165Z,100137.00
2023-05-09T09:36:50.994Z,100144.81
2023-05-09T09:39:19.781Z,100139.38
2023-05-09T09:41:47.389Z,100144.75
2023-05-09T09:44:15.938Z,100159.66
2023-05-09T09:46:44.520Z,100160.53
2023-05-09T09:49:12.686Z,100163.09
2023-05-09T09:51:40.192Z,100168.84
2023-05-09T09:54:08.238Z,100173.94
2023-05-09T09:56:41.129Z,100178.94
2023-05-09T09:59:09.758Z,100181.44
2023-05-09T10:01:54.281Z,100188.69
2023-05-09T10:04:21.656Z,100186.75
2023-05-09T10:06:53.122Z,100200.53
2023-05-09T10:09:22.271Z,100202.31
2023-05-09T10:11:52.716Z,100197.25
2023-05-09T10:14:21.506Z,100198.69
2023-05-09T10:16:49.836Z,100197.41
2023-05-09T10:19:18.522Z,100199.00
2023-05-09T10:21:50.751Z,100197.72
2023-05-09T10:24:23.892Z,100201.38
2023-05-09T10:26:56.647Z,100196.22
2023-05-09T10:29:27.312Z,100188.56
2023-05-09T10:31:59.077Z,100199.34
2023-05-09T10:34:31.778Z,100193.53
2023-05-09T10:37:00.526Z,100192.94
2023-05-09T10:39:28.729Z,100199.22
2023-05-09T10:41:58.810Z,100194.13
2023-05-09T10:44:26.514Z,100198.44
2023-05-09T10:46:54.508Z,100192.94
2023-05-09T10:49:22.670Z,100192.19
2023-05-09T10:51:50.293Z,100191.97
2023-05-09T10:54:28.544Z,100199.22
2023-05-09T10:56:59.047Z,100208.88
2023-05-09T10:59:34.126Z,100204.47
2023-05-09T11:02:02.283Z,100199.88
2023-05-09T11:04:30.301Z,100193.69
2023-05-09T11:06:58.506Z,100204.13
2023-05-09T11:09:33.609Z,100199.84
2023-05-09T11:12:09.510Z,100191.88
2023-05-09T11:14:44.450Z,100200.16
2023-05-09T11:17:13.830Z,100207.50
2023-05-09T11:20:01.792Z,100206.47
2023-05-09T11:22:29.949Z,100215.03
2023-05-09T11:25:04.142Z,100211.41
2023-05-09T11:27:39.019Z,100211.94
2023-05-09T11:30:08.358Z,100207.94
2023-05-09T11:32:42.625Z,100217.13
2023-05-09T11:35:11.769Z,100220.84
2023-05-09T11:37:47.248Z,100214.81
2023-05-09T11:40:16.422Z,100219.66
2023-05-09T11:42:46.898Z,100220.19
2023-05-09T11:45:15.378Z,100220.97
2023-05-09T11:47:43.259Z,100195.88
2023-05-09T11:50:20.857Z,100213.97
2023-05-09T11:52:49.340Z,100222.16
2023-05-09T11:55:18.927Z,100220.31
2023-05-09T11:57:50.443Z,100212.13
2023-05-09T12:00:19.510Z,100213.50
2023-05-09T12:02:47.428Z,100210.56
2023-05-09T12:05:16.730Z,100210.53
2023-05-09T12:07:44.990Z,100200.38
2023-05-09T12:10:14.612Z,100207.69
2023-05-09T12:12:44.089Z,100216.16
2023-05-09T12:15:14.463Z,100214.56
2023-05-09T12:17:43.485Z,100221.97
2023-05-09T12:20:11.452Z,100221.97
2023-05-09T12:22:38.836Z,100207.06
2023-05-09T12:25:08.165Z,100208.66
2023-05-09T12:27:36.895Z,100206.66
2023-05-09T12:30:05.838Z,100213.16
2023-05-09T12:32:35.387Z,100210.56
2023-05-09T12:35:03.153Z,100214.31
2023-05-09T12:37:31.561Z,100212.56
2023-05-09T12:40:02.781Z,100214.56
2023-05-09T12:42:30.444Z,100210.81
2023-05-09T12:44:58.002Z,100224.03
2023-05-09T12:47:27.047Z,100241.84
2023-05-09T12:49:57.897Z,100234.78
2023-05-09T12:52:25.928Z,100237.88
2023-05-09T12:54:53.612Z,100233.34
2023-05-09T12:57:22.107Z,100238.91
2023-05-09T12:59:49.553Z,100242.19
2023-05-09T13:02:17.194Z,100235.19
2023-05-09T13:04:44.563Z,100250.81
2023-05-09T13:07:13.427Z,100245.13
2023-05-09T13:09:55.444Z,100242.44
2023-05-09T13:12:23.750Z,100247.09
2023-05-09T13:14:52.740Z,100261.66
2023-05-09T13:17:20.283Z,100255.59
2023-05-09T13:19:47.576Z,100242.00
2023-05-09T13:22:16.683Z,100244.97
2023-05-09T13:24:44.010Z,100246.81
2023-05-09T13:27:11.337Z,100232.84
2023-05-09T13:29:38.855Z,100237.41
2023-05-09T13:32:06.177Z,100232.41
2023-05-09T13:34:33.793Z,100232.88
2023-05-09T13:37:01.057Z,100238.16
2023-05-09T13:39:30.640Z,100239.06
2023-05-09T13:41:58.023Z,100238.03
2023-05-09T13:44:25.323Z,100233.69
2023-05-09T13:46:52.769Z,100234.25
2023-05-09T13:49:20.165Z,100235.94
2023-05-09T13:51:47.484Z,100236.06
2023-05-09T13:54:14.904Z,100230.19
2023-05-09T13:56:43.705Z,100237.97
2023-05-09T13:59:11.290Z,100233.91
2023-05-09T14:01:38.843Z,100234.19
2023-05-09T14:04:06.282Z,100225.06
2023-05-09T14:06:33.628Z,100228.34
2023-05-09T14:09:00.922Z,100226.88
2023-05-09T14:11:28.275Z,100237.44
2023-05-09T14:13:56.946Z,100234.91
2023-05-09T14:16:24.461Z,100222.16
2023-05-09T14:18:51.881Z,100229.41
2023-05-09T14:21:19.314Z,100233.97
2023-05-09T14:23:46.675Z,100238.09
2023-05-09T14:26:14.091Z,100240.19
2023-05-09T14:28:41.490Z,100229.63
2023-05-09T14:31:10.382Z,100226.56
2023-05-09T14:33:38.331Z,100240.03
2023-05-09T14:36:06.170Z,100232.13
2023-05-09T14:38:33.470Z,100234.09
2023-05-09T14:41:01.000Z,100224.97
2023-05-09T14:43:28.589Z,100220.59
2023-05-09T14:45:55.931Z,100220.69
2023-05-09T14:48:24.723Z,100219.28
2023-05-09T14:50:52.044Z,100215.72
2023-05-09T14:53:19.778Z,100209.91
2023-05-09T14:55:47.066Z,100215.38
2023-05-09T14:58:14.409Z,100209.91
2023-05-09T15:00:42.083Z,100222.59
2023-05-09T15:03:09.587Z,100210.59
2023-05-09T15:05:38.868Z,100217.00
2023-05-09T15:08:06.324Z,100217.69
2023-05-09T15:10:33.800Z,100223.44
2023-05-09T15:13:02.750Z,100213.25
2023-05-09T15:15:31.686Z,100211.81
2023-05-09T15:17:59.092Z,100207.47
2023-05-09T15:20:26.578Z,100213.91
2023-05-09T15:22:55.249Z,100206.69
2023-05-09T15:25:22.655Z,100209.19
2023-05-09T15:27:50.064Z,100197.91
2023-05-09T15:30:17.513Z,100198.97
2023-05-09T15:32:45.006Z,100204.19
2023-05-09T15:35:12.457Z,100193.69
2023-05-09T15:37:40.321Z,100203.16
2023-05-09T15:40:09.820Z,100199.50
2023-05-09T15:42:38.420Z,100206.78
2023-05-09T15:45:06.796Z,100206.16
2023-05-09T15:47:34.168Z,100194.53
2023-05-09T15:50:01.517Z,100193.16
2023-05-09T15:52:29.037Z,100194.16
2023-05-09T15:54:56.453Z,100198.78
2023-05-09T15:57:25.468Z,100195.44
2023-05-09T15:59:52.841Z,100200.84
2023-05-09T16:02:20.359Z,100200.84
2023-05-09T16:04:47.687Z,100186.88
2023-05-09T16:07:14.989Z,100186.44
2023-05-09T16:09:42.292Z,100184.97
2023-05-09T16:12:09.874Z,100185.78
2023-05-09T16:14:38.635Z,100189.13
2023-05-09T16:17:06.401Z,100183.28
2023-05-09T16:19:35.914Z,100194.19
2023-05-09T16:22:03.808Z,100197.94
2023-05-09T16:24:31.166Z,100194.56
2023-05-09T16:26:58.579Z,100206.06
2023-05-09T16:29:25.885Z,100201.69
2023-05-09T16:31:54.646Z,100193.97
2023-05-09T16:34:22.329Z,100190.44
2023-05-09T16:36:49.606Z,100201.88
2023-05-09T16:39:16.908Z,100209.19
2023-05-09T16:41:44.310Z,100197.53
2023-05-09T16:44:11.585Z,100206.06
2023-05-09T16:46:38.849Z,100203.56
2023-05-09T16:49:07.530Z,100206.63
2023-05-09T16:51:34.797Z,100195.34
2023-05-09T16:54:02.183Z,100203.06
2023-05-09T16:56:29.502Z,100206.56
2023-05-09T16:58:57.231Z,100204.44
2023-05-09T17:01:24.745Z,100198.63
2023-05-09T17:03:52.291Z,100205.91
2023-05-09T17:06:21.151Z,100211.91
2023-05-09T17:08:48.604Z,100218.31
2023-05-09T17:11:15.910Z,100221.22
2023-05-09T17:13:43.189Z,100214.06
2023-05-09T17:16:10.758Z,100217.72
2023-05-09T17:18:38.558Z,100226.06
2023-05-09T17:21:06.049Z,100225.50
2023-05-09T17:23:34.755Z,100216.97
2023-05-09T17:26:02.175Z,100229.63
2023-05-09T17:28:29.486Z,100229.63
2023-05-09T17:30:56.798Z,100240.03
2023-05-09T17:33:24.173Z,100242.50
2023-05-09T17:35:51.505Z,100240.09
2023-05-09T17:38:19.070Z,100244.28
2023-05-09T17:40:47.765Z,100246.41
2023-05-09T17:43:15.015Z,100255.13
2023-05-09T17:45:42.424Z,100250.09
2023-05-09T17:48:09.787Z,100258.56
2023-05-09T17:50:37.082Z,100254.41
2023-05-09T17:53:04.516Z,100258.84
2023-05-09T17:55:31.812Z,100268.03
2023-05-09T17:58:00.516Z,100275.31
2023-05-09T18:00:28.063Z,100283.72
2023-05-09T18:02:57.168Z,100287.09
2023-05-09T18:05:26.177Z,100298.41
2023-05-09T18:07:54.158Z,100294.03
2023-05-09T18:10:21.677Z,100296.84
2023-05-09T18:12:49.102Z,100306.03
2023-05-09T18:15:17.801Z,100323.75
2023-05-09T18:17:45.249Z,100320.03
2023-05-09T18:20:13.012Z,100330.03
2023-05-09T18:22:40.414Z,100331.78
2023-05-09T18:25:08.498Z,100333.34
2023-05-09T18:27:35.784Z,100328.25
2023-05-09T18:30:03.142Z,100334.31
2023-05-09T18:32:31.856Z,100342.09
2023-05-09T18:34:59.131Z,100342.00
2023-05-09T18:37:26.397Z,100345.25
2023-05-09T18:39:54.145Z,100352.56
2023-05-09T18:42:21.509Z,100353.53
2023-05-09T18:44:48.820Z,100359.16
2023-05-09T18:47:16.207Z,100364.31
2023-05-09T18:49:45.148Z,100362.81
2023-05-09T18:52:12.449Z,100366.81
2023-05-09T18:54:39.775Z,100359.63
2023-05-09T18:57:07.112Z,100374.28
2023-05-09T18:59:34.432Z,100371.44
2023-05-09T19:02:01.792Z,100384.53
2023-05-09T19:04:31.492Z,100382.31
2023-05-09T19:07:00.229Z,100385.38
2023-05-09T19:09:27.547Z,100383.69
2023-05-09T19:11:54.946Z,100387.44
2023-05-09T19:14:22.418Z,100392.78
2023-05-09T19:16:49.865Z,100396.44
2023-05-09T19:19:17.277Z,100395.78
2023-05-09T19:21:44.756Z,100401.22
2023-05-09T19:24:13.446Z,100400.72
2023-05-09T19:26:40.976Z,100402.31
2023-05-09T19:29:08.481Z,100412.31
2023-05-09T19:31:36.835Z,100403.81
2023-05-09T19:34:04.244Z,100401.56
2023-05-09T19:36:31.989Z,100414.53
2023-05-09T19:38:59.380Z,100414.38
2023-05-09T19:41:28.327Z,100417.50
2023-05-09T19:43:55.633Z,100424.56
2023-05-09T19:46:23.155Z,100421.41
2023-05-09T19:48:50.702Z,100428.59
2023-05-09T19:51:17.966Z,100440.09
2023-05-09T19:53:45.241Z,100435.56
2023-05-09T19:56:12.740Z,100438.44
2023-05-09T19:58:41.443Z,100443.13
2023-05-09T20:01:09.722Z,100454.25
2023-05-09T20:03:37.265Z,100454.59
2023-05-09T20:06:04.994Z,100450.22
2023-05-09T20:08:32.294Z,100445.66
2023-05-09T20:10:59.645Z,100455.25
2023-05-09T20:13:27.152Z,100450.03
2023-05-09T20:15:56.169Z,100471.75
2023-05-09T20:18:23.604Z,100469.72
2023-05-09T20:20:51.008Z,100469.06
2023-05-09T20:23:18.251Z,100475.09
2023-05-09T20:25:45.492Z,100468.03
2023-05-09T20:28:13.002Z,100466.72
2023-05-09T20:30:40.293Z,100465.03
2023-05-09T20:33:08.945Z,100475.47
2023-05-09T20:35:36.420Z,100472.09
2023-05-09T20:38:03.647Z,100477.78
2023-05-09T20:40:31.033Z,100470.41
2023-05-09T20:42:58.332Z,100486.53
2023-05-09T20:45:25.685Z,100474.59
2023-05-09T20:47:53.112Z,100480.47
2023-05-09T20:50:21.849Z,100478.84
2023-05-09T20:52:49.204Z,100484.69
2023-05-09T20:55:16.656Z,100481.84
2023-05-09T20:57:43.935Z,100482.84
2023-05-09T21:00:12.417Z,100489.75
2023-05-09T21:02:39.838Z,100486.50
2023-05-09T21:05:07.897Z,100485.88
2023-05-09T21:07:36.592Z,100490.25
2023-05-09T21:10:04.388Z,100483.53
2023-05-09T21:12:34.413Z,100485.88
2023-05-09T21:15:01.668Z,100486.53
2023-05-09T21:17:29.079Z,100491.94
2023-05-09T21:19:56.378Z,100486.38
2023-05-09T21:22:23.650Z,100492.75
2023-05-09T21:24:52.893Z,100488.22
2023-05-09T21:27:20.316Z,100488.56
2023-05-09T21:29:47.694Z,100495.63
2023-05-09T21:32:15.456Z,100495.28
2023-05-09T21:34:42.920Z,100494.78
2023-05-09T21:37:10.375Z,100501.53
2023-05-09T21:39:37.655Z,100501.69
2023-05-09T21:42:06.356Z,100503.19
2023-05-09T21:44:33.586Z,100503.03
2023-05-09T21:47:00.925Z,100505.69
2023-05-09T21:49:28.703Z,100503.69
2023-05-09T21:51:56.080Z,100495.31
2023-05-09T21:54:23.540Z,100502.34
2023-05-09T21:56:50.792Z,100499.66
2023-05-09T21:59:19.422Z,100502.34
2023-05-09T22:01:46.676Z,100502.88
2023-05-09T22:04:14.175Z,100501.19
2023-05-09T22:06:42.135Z,100502.19
2023-05-09T22:09:09.896Z,100508.84
2023-05-09T22:11:37.264Z,100520.66
2023-05-09T22:14:04.500Z,100522.22
2023-05-09T22:16:33.173Z,100517.94
2023-05-09T22:19:00.459Z,100505.53
2023-05-09T22:21:27.781Z,100504.69
2023-05-09T22:23:55.212Z,100510.53
2023-05-09T22:26:22.488Z,100507.50
2023-05-09T22:28:50.161Z,100505.34
2023-05-09T22:31:17.447Z,100498.84
2023-05-09T22:33:46.253Z,100492.78
2023-05-09T22:36:13.493Z,100495.94
2023-05-09T22:38:40.785Z,100494.72
2023-05-09T22:41:08.064Z,100496.44
2023-05-09T22:43:39.194Z,100489.56
2023-05-09T22:46:07.364Z,100491.75
2023-05-09T22:48:34.737Z,100488.06
2023-05-09T22:51:03.653Z,100487.09
2023-05-09T22:53:31.446Z,100500.22
2023-05-09T22:55:58.863Z,100485.28
2023-05-09T22:58:26.299Z,100485.94
2023-05-09T23:00:53.747Z,100485.50
2023-05-09T23:03:21.272Z,100485.34
2023-05-09T23:05:48.797Z,100485.16
2023-05-09T23:08:17.501Z,100472.97
2023-05-09T23:10:44.866Z,100469.97
2023-05-09T23:13:12.450Z,100477.03
2023-05-09T23:15:39.989Z,100479.88
2023-05-09T23:18:07.482Z,100479.28
2023-05-09T23:20:35.874Z,100470.22
2023-05-09T23:23:03.415Z,100485.44
2023-05-09T23:25:32.247Z,100481.41
2023-05-09T23:27:59.537Z,100483.88
2023-05-09T23:30:26.906Z,100484.25
2023-05-09T23:32:54.437Z,100485.41
2023-05-09T23:35:21.693Z,100485.03
2023-05-09T23:37:49.063Z,100482.50
2023-05-09T23:40:16.485Z,100481.91
2023-05-09T23:42:45.532Z,100480.50
2023-05-09T23:45:12.907Z,100481.34
2023-05-09T23:47:40.441Z,100474.94
2023-05-09T23:50:08.719Z,100478.16
2023-05-09T23:52:36.098Z,100477.41
2023-05-09T23:55:03.802Z,100481.09
2023-05-09T23:57:31.161Z,100469.72
2023-05-09T23:59:59.911Z,100470.63
